Time;durP1;ratioP1;P1;durP2;ratioP2;P2;SDS_P1;SDS_P2;PMS_P1;PMS_P2;Temp;Humidity;BMP_temperature;BMP_pressure;BME280_temperature;BME280_humidity;BME280_pressure;Samples;Min_cycle;Max_cycle;Signal;HPM_P1;HPM_P2
2023/08/20 00:02:23;;;;;;;6.20;2.88;;;;;;;;;;5052834;28;20496;-77
2023/08/20 00:04:48;;;;;;;5.57;2.88;;;;;;;;;;5036130;28;20535;-78
2023/08/20 00:07:15;;;;;;;6.28;3.38;;;;;;;;;;5054442;28;20128;-77
2023/08/20 00:09:41;;;;;;;6.78;3.10;;;;;;;;;;5054050;28;20025;-78
2023/08/20 00:12:07;;;;;;;4.15;2.92;;;;;;;;;;5036538;28;20448;-78
2023/08/20 00:14:56;;;;;;;4.65;2.55;;;;;;;;;;5054225;28;20029;-78
2023/08/20 00:17:24;;;;;;;5.97;2.70;;;;;;;;;;5053343;28;20021;-78
2023/08/20 00:19:50;;;;;;;5.15;3.03;;;;;;;;;;5036212;28;20554;-78
2023/08/20 00:22:16;;;;;;;6.45;2.88;;;;;;;;;;5052291;28;20037;-78
2023/08/20 00:24:42;;;;;;;4.03;2.38;;;;;;;;;;5052635;28;20024;-78
2023/08/20 00:27:08;;;;;;;6.13;2.67;;;;;;;;;;5052336;28;20120;-78
2023/08/20 00:29:33;;;;;;;5.43;2.40;;;;;;;;;;5036429;28;20036;-77
2023/08/20 00:31:58;;;;;;;3.05;2.22;;;;;;;;;;5053553;28;20029;-76
2023/08/20 00:34:24;;;;;;;4.13;2.40;;;;;;;;;;5053424;28;20501;-77
2023/08/20 00:36:49;;;;;;;3.55;2.30;;;;;;;;;;5053879;28;20037;-76
2023/08/20 00:39:15;;;;;;;5.47;2.58;;;;;;;;;;5035125;28;20511;-77
2023/08/20 00:41:40;;;;;;;3.90;2.50;;;;;;;;;;5052150;28;20174;-77
2023/08/20 00:44:06;;;;;;;5.10;2.22;;;;;;;;;;5052120;28;20044;-77
2023/08/20 00:46:31;;;;;;;3.85;2.58;;;;;;;;;;5035205;28;20029;-78
2023/08/20 00:48:57;;;;;;;2.30;1.88;;;;;;;;;;5053461;28;20048;-77
2023/08/20 00:51:22;;;;;;;4.50;2.60;;;;;;;;;;5053617;28;20444;-77
2023/08/20 00:53:48;;;;;;;4.57;2.30;;;;;;;;;;5035424;28;20090;-78
2023/08/20 00:56:15;;;;;;;3.78;2.20;;;;;;;;;;5052134;28;20032;-78
2023/08/20 00:58:40;;;;;;;3.22;2.20;;;;;;;;;;5035295;28;20029;-78
2023/08/20 01:01:06;;;;;;;3.67;2.35;;;;;;;;;;5052376;28;20558;-78
2023/08/20 01:03:31;;;;;;;4.65;2.33;;;;;;;;;;5053453;28;20033;-78
2023/08/20 01:06:15;;;;;;;3.53;2.10;;;;;;;;;;5054167;28;20444;-78
2023/08/20 01:08:41;;;;;;;3.70;1.90;;;;;;;;;;5052880;28;20495;-78
2023/08/20 01:11:15;;;;;;;4.00;2.17;;;;;;;;;;5052260;28;20036;-78
2023/08/20 01:13:40;;;;;;;6.00;2.10;;;;;;;;;;5052202;28;20024;-78
2023/08/20 01:16:05;;;;;;;4.18;2.50;;;;;;;;;;5053008;28;20033;-77
2023/08/20 01:18:31;;;;;;;4.20;2.28;;;;;;;;;;5035439;28;20033;-77
2023/08/20 01:21:00;;;;;;;5.13;2.30;;;;;;;;;;5035079;28;20033;-78
2023/08/20 01:23:56;;;;;;;4.22;2.58;;;;;;;;;;5035176;28;20029;-77
2023/08/20 01:26:25;;;;;;;4.32;2.28;;;;;;;;;;5052046;28;20025;-77
2023/08/20 01:28:50;;;;;;;3.70;1.90;;;;;;;;;;5053031;28;20021;-77
2023/08/20 01:31:16;;;;;;;6.05;2.50;;;;;;;;;;5051875;28;20036;-77
2023/08/20 01:33:42;;;;;;;3.45;2.35;;;;;;;;;;5035098;28;20025;-78
2023/08/20 01:36:11;;;;;;;4.88;2.35;;;;;;;;;;5053536;28;20029;-77
2023/08/20 01:38:37;;;;;;;4.43;2.22;;;;;;;;;;5051467;28;20032;-77
2023/08/20 01:41:03;;;;;;;4.13;2.40;;;;;;;;;;5052955;28;20094;-77
2023/08/20 01:43:28;;;;;;;6.22;2.17;;;;;;;;;;5051542;28;20127;-78
2023/08/20 01:45:54;;;;;;;6.43;2.63;;;;;;;;;;5052984;28;20594;-77
2023/08/20 01:48:19;;;;;;;6.90;2.20;;;;;;;;;;5053051;28;20151;-78
2023/08/20 01:50:45;;;;;;;4.72;2.30;;;;;;;;;;5051476;28;20033;-77
2023/08/20 01:53:11;;;;;;;3.40;2.08;;;;;;;;;;5052665;28;20480;-78
2023/08/20 01:55:36;;;;;;;4.00;2.20;;;;;;;;;;5051297;28;20040;-78
2023/08/20 01:58:02;;;;;;;3.40;2.03;;;;;;;;;;5051959;28;20037;-78
2023/08/20 02:00:28;;;;;;;3.38;2.03;;;;;;;;;;5052750;28;20033;-77
2023/08/20 02:02:54;;;;;;;7.22;2.53;;;;;;;;;;5035506;28;20029;-77
2023/08/20 02:05:19;;;;;;;4.55;2.30;;;;;;;;;;5052838;28;20482;-77
2023/08/20 02:07:44;;;;;;;4.43;1.63;;;;;;;;;;5051973;28;20082;-77
2023/08/20 02:10:10;;;;;;;4.40;2.60;;;;;;;;;;5052856;28;20464;-77
2023/08/20 02:12:35;;;;;;;4.78;1.88;;;;;;;;;;5051357;28;20040;-77
2023/08/20 02:15:03;;;;;;;5.40;1.90;;;;;;;;;;5051301;28;20494;-78
2023/08/20 02:17:28;;;;;;;3.10;2.13;;;;;;;;;;5034905;28;20029;-78
2023/08/20 02:19:54;;;;;;;4.57;2.17;;;;;;;;;;5054642;28;20085;-77
2023/08/20 02:22:20;;;;;;;3.05;2.13;;;;;;;;;;5056165;28;20033;-78
2023/08/20 02:24:46;;;;;;;4.32;2.20;;;;;;;;;;5054838;28;20036;-77
2023/08/20 02:27:11;;;;;;;3.80;2.05;;;;;;;;;;5056209;28;20029;-77
2023/08/20 02:29:36;;;;;;;2.85;1.85;;;;;;;;;;5055972;28;20033;-77
2023/08/20 02:32:02;;;;;;;3.15;2.13;;;;;;;;;;5055274;28;20107;-77
2023/08/20 02:34:27;;;;;;;3.28;2.10;;;;;;;;;;5055975;28;20447;-78
2023/08/20 02:36:53;;;;;;;3.97;1.95;;;;;;;;;;5056462;28;20055;-77
2023/08/20 02:39:18;;;;;;;3.22;2.10;;;;;;;;;;5055418;28;20056;-77
2023/08/20 02:41:43;;;;;;;4.32;2.00;;;;;;;;;;5054912;28;20045;-77
2023/08/20 02:44:09;;;;;;;4.38;2.15;;;;;;;;;;5054562;28;20033;-77
2023/08/20 02:46:34;;;;;;;3.50;2.17;;;;;;;;;;5054425;28;20120;-77
2023/08/20 02:49:00;;;;;;;5.50;1.98;;;;;;;;;;5054529;28;20092;-77
2023/08/20 02:51:26;;;;;;;4.00;1.90;;;;;;;;;;5055720;28;20098;-77
2023/08/20 02:53:51;;;;;;;3.33;2.00;;;;;;;;;;5055638;28;20494;-77
2023/08/20 02:56:16;;;;;;;6.32;2.40;;;;;;;;;;5054289;28;20033;-77
2023/08/20 02:58:42;;;;;;;6.43;3.17;;;;;;;;;;5037432;28;20033;-78
2023/08/20 03:01:17;;;;;;;4.10;2.00;;;;;;;;;;5055779;28;20475;-78
2023/08/20 03:03:43;;;;;;;3.97;2.00;;;;;;;;;;5055516;28;20029;-78
2023/08/20 03:06:08;;;;;;;3.00;1.98;;;;;;;;;;5055912;28;20032;-78
2023/08/20 03:08:33;;;;;;;5.22;2.28;;;;;;;;;;5053965;28;20090;-78
2023/08/20 03:10:59;;;;;;;4.10;2.10;;;;;;;;;;5054558;28;20091;-78
2023/08/20 03:13:24;;;;;;;2.55;1.70;;;;;;;;;;5055273;28;20108;-78
2023/08/20 03:15:50;;;;;;;3.45;1.88;;;;;;;;;;5053796;28;20499;-77
2023/08/20 03:18:15;;;;;;;3.83;1.83;;;;;;;;;;5037220;28;20037;-78
2023/08/20 03:20:40;;;;;;;3.38;1.90;;;;;;;;;;5054184;28;20446;-77
2023/08/20 03:23:06;;;;;;;5.22;2.25;;;;;;;;;;5054940;28;20044;-77
2023/08/20 03:25:31;;;;;;;4.32;1.98;;;;;;;;;;5055156;28;20029;-77
2023/08/20 03:27:56;;;;;;;4.10;1.75;;;;;;;;;;5054870;28;20033;-77
2023/08/20 03:30:22;;;;;;;2.80;1.88;;;;;;;;;;5054679;28;20032;-77
2023/08/20 03:32:47;;;;;;;2.88;1.80;;;;;;;;;;5053754;28;20061;-76
2023/08/20 03:35:13;;;;;;;2.72;1.90;;;;;;;;;;5053501;28;20052;-77
2023/08/20 03:37:38;;;;;;;3.60;1.60;;;;;;;;;;5053537;28;20045;-77
2023/08/20 03:40:04;;;;;;;6.68;2.35;;;;;;;;;;5053421;28;20120;-77
2023/08/20 03:42:30;;;;;;;4.72;2.20;;;;;;;;;;5054627;28;20115;-77
2023/08/20 03:44:56;;;;;;;4.22;1.77;;;;;;;;;;5053701;28;20107;-77
2023/08/20 03:47:21;;;;;;;2.53;1.60;;;;;;;;;;5053452;28;20032;-77
2023/08/20 03:49:48;;;;;;;2.80;1.60;;;;;;;;;;5054740;28;20119;-77
2023/08/20 03:52:13;;;;;;;4.53;2.13;;;;;;;;;;5053407;28;20495;-78
2023/08/20 03:54:39;;;;;;;5.18;1.88;;;;;;;;;;5053116;28;20063;-78
2023/08/20 03:57:04;;;;;;;3.15;1.70;;;;;;;;;;5054339;28;20033;-77
2023/08/20 03:59:30;;;;;;;2.70;1.70;;;;;;;;;;5054249;28;20404;-78
2023/08/20 04:01:56;;;;;;;4.97;2.20;;;;;;;;;;5054723;28;20021;-77
2023/08/20 04:04:21;;;;;;;3.28;1.70;;;;;;;;;;5053098;28;20032;-77
2023/08/20 04:06:47;;;;;;;2.97;1.77;;;;;;;;;;5054068;28;20029;-77
2023/08/20 04:09:12;;;;;;;4.60;1.75;;;;;;;;;;5054249;28;20052;-77
2023/08/20 04:11:38;;;;;;;3.63;2.00;;;;;;;;;;5054258;28;20021;-76
2023/08/20 04:14:03;;;;;;;4.05;1.90;;;;;;;;;;5052885;28;20480;-77
2023/08/20 04:16:29;;;;;;;3.15;1.80;;;;;;;;;;5054067;28;20025;-77
2023/08/20 04:18:54;;;;;;;3.30;1.95;;;;;;;;;;5052954;28;20106;-77
2023/08/20 04:21:20;;;;;;;4.35;1.80;;;;;;;;;;5054074;28;20025;-76
2023/08/20 04:23:45;;;;;;;5.38;2.13;;;;;;;;;;5054199;28;20024;-76
2023/08/20 04:26:11;;;;;;;5.53;1.90;;;;;;;;;;5053965;28;20025;-77
2023/08/20 04:28:36;;;;;;;2.05;1.63;;;;;;;;;;5053888;28;20116;-77
2023/08/20 04:31:02;;;;;;;4.60;1.52;;;;;;;;;;5054209;28;20033;-78
2023/08/20 04:33:27;;;;;;;2.85;1.73;;;;;;;;;;5053778;28;20025;-77
2023/08/20 04:35:53;;;;;;;4.38;1.85;;;;;;;;;;5036369;28;20364;-78
2023/08/20 04:38:18;;;;;;;4.85;2.10;;;;;;;;;;5053712;28;20108;-78
2023/08/20 04:40:47;;;;;;;3.58;2.00;;;;;;;;;;5053727;28;20049;-77
2023/08/20 04:43:13;;;;;;;5.35;2.10;;;;;;;;;;5052762;28;20505;-77
2023/08/20 04:45:38;;;;;;;2.85;1.60;;;;;;;;;;5052237;28;20040;-77
2023/08/20 04:48:04;;;;;;;3.60;1.50;;;;;;;;;;5036732;28;20126;-76
2023/08/20 04:50:30;;;;;;;6.28;1.70;;;;;;;;;;5037123;28;20116;-76
2023/08/20 04:52:55;;;;;;;3.17;1.70;;;;;;;;;;5052480;28;20078;-77
2023/08/20 04:55:21;;;;;;;3.00;1.70;;;;;;;;;;5053263;28;20029;-77
2023/08/20 04:57:46;;;;;;;3.65;1.80;;;;;;;;;;5053493;28;20033;-77
2023/08/20 05:00:12;;;;;;;5.20;1.88;;;;;;;;;;5053563;28;20438;-76
2023/08/20 05:02:37;;;;;;;5.22;1.73;;;;;;;;;;5054375;28;20060;-77
2023/08/20 05:05:03;;;;;;;4.70;2.13;;;;;;;;;;5053785;28;20146;-76
2023/08/20 05:07:28;;;;;;;4.15;1.80;;;;;;;;;;5053962;28;20033;-75
2023/08/20 05:09:54;;;;;;;2.92;1.75;;;;;;;;;;5052909;28;20487;-77
2023/08/20 05:12:19;;;;;;;2.40;1.50;;;;;;;;;;5053933;28;20029;-77
2023/08/20 05:14:44;;;;;;;4.18;1.80;;;;;;;;;;5053907;28;20067;-76
2023/08/20 05:17:10;;;;;;;3.75;1.60;;;;;;;;;;5052144;28;20408;-77
2023/08/20 05:19:35;;;;;;;5.43;1.63;;;;;;;;;;5053475;28;20368;-77
2023/08/20 05:22:01;;;;;;;7.85;2.10;;;;;;;;;;5053192;28;20426;-76
2023/08/20 05:24:26;;;;;;;6.85;1.70;;;;;;;;;;5053851;28;20025;-76
2023/08/20 05:27:09;;;;;;;3.28;1.85;;;;;;;;;;5053498;28;20491;-76
2023/08/20 05:29:35;;;;;;;4.03;1.70;;;;;;;;;;5019023;28;20033;-76
2023/08/20 05:32:00;;;;;;;4.63;1.92;;;;;;;;;;5051906;28;20032;-77
2023/08/20 05:34:25;;;;;;;5.32;1.98;;;;;;;;;;5052918;28;20032;-77
2023/08/20 05:36:51;;;;;;;2.40;1.70;;;;;;;;;;5053044;28;20044;-77
2023/08/20 05:39:16;;;;;;;8.77;1.95;;;;;;;;;;5052991;28;20527;-76
2023/08/20 05:41:42;;;;;;;3.22;1.95;;;;;;;;;;5053392;28;20384;-77
2023/08/20 05:44:07;;;;;;;4.68;1.70;;;;;;;;;;5053013;28;20025;-78
2023/08/20 05:46:32;;;;;;;6.68;1.60;;;;;;;;;;5051719;28;20369;-78
2023/08/20 05:48:58;;;;;;;7.60;1.92;;;;;;;;;;5051839;28;20029;-78
2023/08/20 05:51:23;;;;;;;4.97;2.08;;;;;;;;;;5052943;28;20042;-78
2023/08/20 05:53:49;;;;;;;4.70;2.40;;;;;;;;;;5052389;28;20086;-78
2023/08/20 05:56:14;;;;;;;4.82;1.73;;;;;;;;;;5055717;28;20037;-78
2023/08/20 05:58:39;;;;;;;4.47;1.70;;;;;;;;;;5039055;28;20052;-78
2023/08/20 06:01:05;;;;;;;7.72;1.73;;;;;;;;;;5055941;28;20064;-78
2023/08/20 06:03:30;;;;;;;5.32;1.60;;;;;;;;;;5056780;28;20108;-78
2023/08/20 06:05:59;;;;;;;4.32;1.70;;;;;;;;;;5055771;28;20041;-78
2023/08/20 06:08:24;;;;;;;3.20;1.55;;;;;;;;;;5057167;28;20119;-78
2023/08/20 06:10:50;;;;;;;5.72;1.60;;;;;;;;;;5056698;28;20085;-78
2023/08/20 06:13:15;;;;;;;6.60;1.80;;;;;;;;;;5056750;28;20039;-78
2023/08/20 06:15:41;;;;;;;4.72;1.73;;;;;;;;;;5056780;28;20032;-78
2023/08/20 06:18:06;;;;;;;3.80;1.60;;;;;;;;;;5055249;28;20020;-78
2023/08/20 06:20:32;;;;;;;3.28;1.55;;;;;;;;;;5039187;28;20031;-78
2023/08/20 06:22:57;;;;;;;2.65;1.67;;;;;;;;;;5038812;28;20471;-78
2023/08/20 06:25:23;;;;;;;3.63;1.50;;;;;;;;;;5056676;28;20033;-78
2023/08/20 06:27:48;;;;;;;6.70;2.20;;;;;;;;;;5056485;28;20025;-78
2023/08/20 06:30:13;;;;;;;3.88;1.20;;;;;;;;;;5056681;28;20501;-78
2023/08/20 06:32:39;;;;;;;3.13;1.58;;;;;;;;;;5055456;28;20036;-78
2023/08/20 06:35:05;;;;;;;5.47;1.40;;;;;;;;;;5055275;28;20036;-78
2023/08/20 06:37:30;;;;;;;4.03;1.50;;;;;;;;;;5055099;28;20033;-78
2023/08/20 06:39:55;;;;;;;8.38;2.13;;;;;;;;;;5055924;28;20141;-78
2023/08/20 06:42:21;;;;;;;4.60;1.50;;;;;;;;;;5056398;28;20091;-78
2023/08/20 06:44:46;;;;;;;6.50;1.80;;;;;;;;;;5056450;28;20439;-78
2023/08/20 06:47:13;;;;;;;4.28;1.65;;;;;;;;;;5055943;28;20439;-77
2023/08/20 06:49:38;;;;;;;5.30;1.50;;;;;;;;;;5056132;28;20029;-78
2023/08/20 06:52:04;;;;;;;4.72;2.05;;;;;;;;;;5055901;28;20032;-77
2023/08/20 06:54:29;;;;;;;4.10;1.65;;;;;;;;;;5054483;28;20040;-77
2023/08/20 06:56:54;;;;;;;4.43;1.48;;;;;;;;;;5054333;28;20029;-77
2023/08/20 06:59:20;;;;;;;2.97;1.42;;;;;;;;;;5054623;28;20429;-78
2023/08/20 07:01:45;;;;;;;4.10;1.50;;;;;;;;;;5055481;28;20090;-79
2023/08/20 07:04:12;;;;;;;8.52;1.65;;;;;;;;;;5055487;28;20021;-79
2023/08/20 07:06:38;;;;;;;5.40;1.67;;;;;;;;;;5037139;28;20041;-79
2023/08/20 07:09:04;;;;;;;4.20;1.50;;;;;;;;;;5054415;28;20021;-79
2023/08/20 07:11:29;;;;;;;5.55;1.70;;;;;;;;;;5054235;28;20472;-78
2023/08/20 07:13:55;;;;;;;7.28;2.10;;;;;;;;;;5055584;28;20028;-78
2023/08/20 07:16:20;;;;;;;3.95;1.83;;;;;;;;;;5055189;28;20037;-78
2023/08/20 07:18:45;;;;;;;7.35;1.70;;;;;;;;;;5054903;28;20147;-79
2023/08/20 07:21:11;;;;;;;4.35;1.90;;;;;;;;;;5038126;28;20036;-78
2023/08/20 07:23:36;;;;;;;7.57;1.85;;;;;;;;;;5056060;28;20099;-79
2023/08/20 07:26:11;;;;;;;9.63;1.98;;;;;;;;;;5055868;28;20060;-79
2023/08/20 07:31:21;;;;;;;5.07;1.80;;;;;;;;;;5054896;28;20032;-79
2023/08/20 07:33:47;;;;;;;7.60;1.65;;;;;;;;;;5055336;28;20025;-79
2023/08/20 07:36:13;;;;;;;5.22;1.90;;;;;;;;;;5054395;28;20120;-79
2023/08/20 07:38:41;;;;;;;4.05;1.35;;;;;;;;;;5037327;28;20124;-79
2023/08/20 07:41:07;;;;;;;4.55;1.70;;;;;;;;;;5053849;28;20532;-80
2023/08/20 07:43:32;;;;;;;5.00;1.75;;;;;;;;;;5037352;28;20071;-80
2023/08/20 07:45:57;;;;;;;5.85;1.77;;;;;;;;;;5053978;28;20029;-79
2023/08/20 07:48:23;;;;;;;7.05;1.48;;;;;;;;;;5037039;28;20060;-79
2023/08/20 07:50:48;;;;;;;5.13;1.67;;;;;;;;;;5053907;28;20025;-80
2023/08/20 07:53:13;;;;;;;4.60;1.70;;;;;;;;;;5055146;28;20388;-79
2023/08/20 07:55:39;;;;;;;3.78;1.48;;;;;;;;;;5053692;28;20036;-79
2023/08/20 07:58:04;;;;;;;6.18;1.30;;;;;;;;;;5053405;28;20043;-79
2023/08/20 08:00:30;;;;;;;3.38;1.02;;;;;;;;;;5036485;28;20120;-80
2023/08/20 08:02:55;;;;;;;3.92;1.30;;;;;;;;;;5053821;28;20025;-79
2023/08/20 08:05:20;;;;;;;4.50;1.40;;;;;;;;;;5054455;28;20491;-80
2023/08/20 08:07:46;;;;;;;3.65;1.33;;;;;;;;;;5036318;28;20033;-79
2023/08/20 08:10:11;;;;;;;2.83;1.27;;;;;;;;;;5053002;28;20025;-79
2023/08/20 08:12:36;;;;;;;6.68;1.42;;;;;;;;;;5053057;28;20037;-80
2023/08/20 08:15:02;;;;;;;4.38;1.83;;;;;;;;;;5055320;28;20036;-79
2023/08/20 08:17:28;;;;;;;4.53;1.55;;;;;;;;;;5055098;28;20033;-80
2023/08/20 08:19:55;;;;;;;5.57;1.38;;;;;;;;;;5054330;28;20447;-80
2023/08/20 08:22:20;;;;;;;3.00;1.30;;;;;;;;;;5054188;28;20113;-80
2023/08/20 08:24:45;;;;;;;5.28;1.58;;;;;;;;;;5019826;28;20120;-79
2023/08/20 08:27:11;;;;;;;2.97;1.25;;;;;;;;;;5054908;28;20029;-78
2023/08/20 08:29:36;;;;;;;5.35;1.67;;;;;;;;;;5054488;28;20033;-79
2023/08/20 08:32:02;;;;;;;8.80;2.45;;;;;;;;;;5054794;28;20086;-79
2023/08/20 08:34:27;;;;;;;11.52;1.70;;;;;;;;;;5052558;28;20041;-79
2023/08/20 08:36:53;;;;;;;3.85;1.38;;;;;;;;;;5053001;28;20043;-78
2023/08/20 08:39:18;;;;;;;5.82;1.60;;;;;;;;;;5052492;28;20113;-79
2023/08/20 08:41:45;;;;;;;4.43;1.38;;;;;;;;;;5053666;28;20593;-79
2023/08/20 08:44:11;;;;;;;4.40;1.20;;;;;;;;;;5052723;28;20029;-79
2023/08/20 08:46:38;;;;;;;4.85;1.45;;;;;;;;;;5036034;28;20372;-79
2023/08/20 08:49:04;;;;;;;4.07;1.05;;;;;;;;;;5036527;28;20130;-81
2023/08/20 08:51:30;;;;;;;2.97;1.20;;;;;;;;;;5053630;28;20032;-79
2023/08/20 08:53:55;;;;;;;8.25;1.30;;;;;;;;;;5052388;28;20147;-79
2023/08/20 08:56:21;;;;;;;6.47;1.50;;;;;;;;;;5052861;28;20036;-78
2023/08/20 08:58:47;;;;;;;3.45;1.23;;;;;;;;;;5035576;28;20025;-79
2023/08/20 09:01:13;;;;;;;3.13;1.38;;;;;;;;;;5053355;28;20029;-78
2023/08/20 09:03:39;;;;;;;4.95;1.63;;;;;;;;;;5053528;28;20032;-78
2023/08/20 09:06:08;;;;;;;4.47;1.60;;;;;;;;;;5053823;28;20475;-78
2023/08/20 09:08:34;;;;;;;7.25;2.10;;;;;;;;;;5052674;28;20049;-78
2023/08/20 09:11:01;;;;;;;6.10;1.50;;;;;;;;;;5052474;28;20029;-78
2023/08/20 09:13:34;;;;;;;4.32;1.55;;;;;;;;;;5052478;28;20027;-78
2023/08/20 09:16:03;;;;;;;3.45;1.45;;;;;;;;;;5053806;28;20059;-79
2023/08/20 09:18:29;;;;;;;3.60;1.38;;;;;;;;;;5053999;28;20479;-78
2023/08/20 09:20:58;;;;;;;8.27;1.98;;;;;;;;;;5019451;28;20044;-78
2023/08/20 09:23:28;;;;;;;4.65;1.23;;;;;;;;;;5052401;28;20517;-79
2023/08/20 09:25:53;;;;;;;3.08;1.60;;;;;;;;;;5036852;28;20442;-77
2023/08/20 09:28:19;;;;;;;8.40;2.10;;;;;;;;;;5035897;28;20056;-78
2023/08/20 09:31:01;;;;;;;8.63;1.25;;;;;;;;;;5056373;28;20028;-79
2023/08/20 09:33:27;;;;;;;7.15;1.63;;;;;;;;;;5057894;28;20388;-79
2023/08/20 09:35:54;;;;;;;3.05;1.33;;;;;;;;;;5040701;28;20037;-79
2023/08/20 09:38:21;;;;;;;18.73;1.50;;;;;;;;;;5058044;28;20024;-80
2023/08/20 09:40:49;;;;;;;5.03;1.40;;;;;;;;;;5056607;28;20060;-79
2023/08/20 09:43:16;;;;;;;2.65;1.15;;;;;;;;;;5057889;28;20025;-78
2023/08/20 09:45:42;;;;;;;4.97;1.38;;;;;;;;;;5039521;28;20025;-79
2023/08/20 09:48:09;;;;;;;3.47;1.25;;;;;;;;;;5039385;28;20033;-79
2023/08/20 09:50:36;;;;;;;2.67;1.10;;;;;;;;;;5055887;28;20036;-79
2023/08/20 09:53:17;;;;;;;3.72;1.17;;;;;;;;;;5039513;28;20021;-78
2023/08/20 09:55:43;;;;;;;1.48;0.95;;;;;;;;;;5055962;28;20067;-79
2023/08/20 09:58:09;;;;;;;1.27;0.98;;;;;;;;;;5057359;28;20538;-78
2023/08/20 10:00:35;;;;;;;1.95;0.80;;;;;;;;;;5055811;28;20056;-78
2023/08/20 10:03:01;;;;;;;1.92;0.98;;;;;;;;;;5055729;28;20025;-78
2023/08/20 10:05:26;;;;;;;2.58;0.90;;;;;;;;;;5038700;28;20056;-79
2023/08/20 10:07:54;;;;;;;3.28;1.00;;;;;;;;;;5056500;28;20064;-79
2023/08/20 10:10:19;;;;;;;3.15;1.25;;;;;;;;;;5056438;28;20017;-78
2023/08/20 10:12:45;;;;;;;2.05;0.77;;;;;;;;;;5056680;28;20029;-78
2023/08/20 10:15:12;;;;;;;4.57;1.13;;;;;;;;;;5055204;28;20036;-78
2023/08/20 10:17:39;;;;;;;3.00;1.15;;;;;;;;;;5055427;28;20090;-79
2023/08/20 10:20:06;;;;;;;1.83;0.90;;;;;;;;;;5055073;28;20029;-79
2023/08/20 10:22:42;;;;;;;3.85;0.95;;;;;;;;;;5055595;28;20033;-78
2023/08/20 10:25:12;;;;;;;3.13;0.98;;;;;;;;;;5038798;28;20024;-78
2023/08/20 10:27:44;;;;;;;2.17;1.10;;;;;;;;;;5039247;28;20376;-78
2023/08/20 10:30:15;;;;;;;2.72;0.90;;;;;;;;;;5056790;28;20488;-78
2023/08/20 10:32:54;;;;;;;1.00;0.80;;;;;;;;;;5056544;28;20056;-78
2023/08/20 10:35:25;;;;;;;2.22;0.70;;;;;;;;;;5055472;28;20029;-78
2023/08/20 10:38:04;;;;;;;3.05;1.27;;;;;;;;;;5056431;28;20021;-78
2023/08/20 10:40:51;;;;;;;1.90;0.90;;;;;;;;;;5054216;28;20098;-78
2023/08/20 10:43:25;;;;;;;1.83;0.90;;;;;;;;;;5056108;28;20434;-78
2023/08/20 10:46:19;;;;;;;1.70;0.88;;;;;;;;;;5056086;28;20494;-78
2023/08/20 10:48:50;;;;;;;16.67;1.73;;;;;;;;;;5054752;28;20024;-78
2023/08/20 10:51:16;;;;;;;2.95;1.58;;;;;;;;;;5037821;28;20043;-78
2023/08/20 10:53:43;;;;;;;4.50;1.20;;;;;;;;;;5054391;28;20070;-78
2023/08/20 10:56:08;;;;;;;2.03;1.20;;;;;;;;;;5055212;28;20032;-78
2023/08/20 10:58:34;;;;;;;2.40;0.90;;;;;;;;;;5053835;28;20033;-78
2023/08/20 11:01:21;;;;;;;3.60;1.20;;;;;;;;;;5055712;28;20083;-78
2023/08/20 11:03:49;;;;;;;5.65;1.40;;;;;;;;;;5055295;28;20078;-78
2023/08/20 11:06:15;;;;;;;4.72;1.67;;;;;;;;;;5054420;28;20033;-79
2023/08/20 11:08:41;;;;;;;5.72;1.50;;;;;;;;;;5037194;28;20029;-80
2023/08/20 11:11:07;;;;;;;5.63;1.48;;;;;;;;;;5054021;28;20041;-79
2023/08/20 11:13:33;;;;;;;6.95;1.92;;;;;;;;;;5053691;28;20472;-78
2023/08/20 11:16:00;;;;;;;3.67;1.63;;;;;;;;;;5053526;28;20021;-78
2023/08/20 11:18:25;;;;;;;6.13;1.90;;;;;;;;;;5036714;28;20120;-78
2023/08/20 11:20:51;;;;;;;5.05;1.90;;;;;;;;;;5053568;28;20159;-78
2023/08/20 11:23:17;;;;;;;3.00;1.60;;;;;;;;;;5055314;28;20086;-78
2023/08/20 11:25:43;;;;;;;4.07;1.75;;;;;;;;;;5054769;28;20028;-78
2023/08/20 11:28:09;;;;;;;3.42;1.58;;;;;;;;;;5055986;28;20032;-77
2023/08/20 11:30:35;;;;;;;4.18;1.92;;;;;;;;;;5055621;28;20089;-77
2023/08/20 11:33:00;;;;;;;7.55;2.13;;;;;;;;;;5053260;28;20025;-78
2023/08/20 11:35:26;;;;;;;7.10;2.70;;;;;;;;;;5053235;28;20430;-78
2023/08/20 11:37:52;;;;;;;4.60;2.10;;;;;;;;;;5036563;28;20067;-79
2023/08/20 11:40:21;;;;;;;12.18;2.25;;;;;;;;;;5052831;28;20049;-78
2023/08/20 11:42:47;;;;;;;4.68;2.20;;;;;;;;;;5053199;28;20411;-78
2023/08/20 11:45:12;;;;;;;4.15;1.75;;;;;;;;;;5036944;28;20044;-78
2023/08/20 11:47:41;;;;;;;4.53;1.92;;;;;;;;;;5053030;28;20056;-78
2023/08/20 11:50:08;;;;;;;6.53;2.42;;;;;;;;;;5053165;28;20028;-78
2023/08/20 11:52:34;;;;;;;5.50;2.00;;;;;;;;;;5035876;28;20035;-78
2023/08/20 11:55:03;;;;;;;6.28;2.10;;;;;;;;;;5052902;28;20036;-78
2023/08/20 11:57:29;;;;;;;9.70;2.15;;;;;;;;;;5052827;28;20032;-78
2023/08/20 11:59:55;;;;;;;5.88;2.38;;;;;;;;;;5052129;28;20094;-78
2023/08/20 12:02:29;;;;;;;5.32;1.80;;;;;;;;;;5054063;28;20032;-77
2023/08/20 12:04:58;;;;;;;12.20;2.30;;;;;;;;;;5054404;28;20114;-78
2023/08/20 12:07:26;;;;;;;5.55;2.08;;;;;;;;;;5053980;28;20052;-77
2023/08/20 12:09:55;;;;;;;7.35;2.42;;;;;;;;;;5052590;28;20022;-78
2023/08/20 12:12:21;;;;;;;4.68;2.22;;;;;;;;;;5052542;28;20029;-78
2023/08/20 12:14:47;;;;;;;5.43;2.10;;;;;;;;;;5053460;28;20048;-78
2023/08/20 12:17:12;;;;;;;4.57;1.75;;;;;;;;;;5037283;28;20074;-78
2023/08/20 12:19:38;;;;;;;4.95;1.90;;;;;;;;;;5036511;28;20033;-78
2023/08/20 12:22:05;;;;;;;6.32;1.90;;;;;;;;;;5052780;28;20036;-78
2023/08/20 12:24:30;;;;;;;3.72;1.65;;;;;;;;;;5035743;28;20094;-78
2023/08/20 12:26:56;;;;;;;3.92;1.70;;;;;;;;;;5053395;28;20025;-79
2023/08/20 12:29:21;;;;;;;6.43;2.03;;;;;;;;;;5050483;28;20120;-78
2023/08/20 12:31:47;;;;;;;4.82;1.80;;;;;;;;;;5053380;28;20031;-79
2023/08/20 12:34:13;;;;;;;4.47;2.05;;;;;;;;;;5052055;28;20472;-78
2023/08/20 12:36:38;;;;;;;3.55;1.70;;;;;;;;;;5053744;28;20059;-78
2023/08/20 12:39:04;;;;;;;3.75;1.65;;;;;;;;;;5035294;28;20041;-79
2023/08/20 12:41:31;;;;;;;4.60;1.52;;;;;;;;;;5051149;28;20057;-79
2023/08/20 12:43:57;;;;;;;2.80;1.48;;;;;;;;;;5053512;28;20391;-79
2023/08/20 12:46:23;;;;;;;3.58;1.40;;;;;;;;;;5052345;28;20025;-79
2023/08/20 12:48:50;;;;;;;2.90;1.55;;;;;;;;;;5053872;28;20106;-78
2023/08/20 12:51:17;;;;;;;2.60;1.40;;;;;;;;;;5035669;28;20055;-79
2023/08/20 12:53:43;;;;;;;4.28;1.55;;;;;;;;;;5052922;28;20032;-79
2023/08/20 12:56:08;;;;;;;5.30;1.80;;;;;;;;;;5053709;28;20036;-78
2023/08/20 12:58:34;;;;;;;3.83;1.38;;;;;;;;;;5051616;28;20094;-78
2023/08/20 13:01:00;;;;;;;5.88;1.38;;;;;;;;;;5051646;28;20036;-78
2023/08/20 13:03:27;;;;;;;3.55;1.55;;;;;;;;;;5050620;28;20032;-79
2023/08/20 13:05:53;;;;;;;6.28;1.42;;;;;;;;;;5053680;28;20067;-79
2023/08/20 13:08:18;;;;;;;4.25;1.58;;;;;;;;;;5052470;28;20053;-78
2023/08/20 13:10:53;;;;;;;1.75;1.15;;;;;;;;;;5052578;28;20025;-79
2023/08/20 13:13:21;;;;;;;3.30;1.30;;;;;;;;;;5050758;28;20025;-78
2023/08/20 13:15:46;;;;;;;3.03;1.30;;;;;;;;;;5051082;28;20037;-79
2023/08/20 13:18:13;;;;;;;2.53;1.58;;;;;;;;;;5053290;28;20037;-79
2023/08/20 13:20:39;;;;;;;5.47;1.50;;;;;;;;;;5053606;28;20494;-79
2023/08/20 13:23:05;;;;;;;3.22;1.40;;;;;;;;;;5054033;28;20037;-79
2023/08/20 13:25:30;;;;;;;4.30;1.40;;;;;;;;;;5054481;28;20078;-79
2023/08/20 13:27:56;;;;;;;2.47;1.23;;;;;;;;;;5053603;28;20021;-79
2023/08/20 13:30:21;;;;;;;3.17;1.55;;;;;;;;;;5036630;28;20498;-78
2023/08/20 13:32:47;;;;;;;3.83;1.33;;;;;;;;;;5053255;28;20111;-80
2023/08/20 13:35:14;;;;;;;1.42;1.10;;;;;;;;;;5034667;28;20393;-79
2023/08/20 13:37:39;;;;;;;2.30;1.10;;;;;;;;;;5052443;28;20083;-79
2023/08/20 13:40:06;;;;;;;3.30;1.23;;;;;;;;;;5052246;28;20025;-79
2023/08/20 13:42:32;;;;;;;2.38;1.20;;;;;;;;;;5051033;28;20462;-79
2023/08/20 13:44:57;;;;;;;3.20;1.38;;;;;;;;;;5050552;28;20033;-79
2023/08/20 13:47:23;;;;;;;3.22;1.30;;;;;;;;;;5052130;28;20032;-79
2023/08/20 13:49:48;;;;;;;3.33;1.40;;;;;;;;;;5051248;28;20445;-80
2023/08/20 13:52:13;;;;;;;5.15;1.45;;;;;;;;;;5053434;28;20229;-80
2023/08/20 13:54:39;;;;;;;2.85;1.30;;;;;;;;;;5053080;28;20364;-80
2023/08/20 13:57:04;;;;;;;2.60;1.20;;;;;;;;;;5054447;28;20064;-79
2023/08/20 13:59:31;;;;;;;2.55;1.30;;;;;;;;;;5053078;28;20021;-80
2023/08/20 14:01:56;;;;;;;2.50;1.02;;;;;;;;;;5053579;28;20033;-80
2023/08/20 14:04:21;;;;;;;2.20;1.20;;;;;;;;;;5053473;28;20036;-80
2023/08/20 14:06:47;;;;;;;2.00;1.13;;;;;;;;;;5055230;28;20086;-79
2023/08/20 14:09:13;;;;;;;1.98;1.10;;;;;;;;;;5037040;28;20029;-78
2023/08/20 14:11:38;;;;;;;2.40;1.17;;;;;;;;;;5035618;28;20036;-79
2023/08/20 14:14:04;;;;;;;2.88;1.10;;;;;;;;;;5051970;28;20045;-79
2023/08/20 14:16:29;;;;;;;4.53;1.00;;;;;;;;;;5056484;28;20108;-79
2023/08/20 14:18:55;;;;;;;1.08;0.85;;;;;;;;;;5056134;28;20025;-79
2023/08/20 14:21:20;;;;;;;2.92;1.00;;;;;;;;;;5038942;28;20476;-79
2023/08/20 14:23:46;;;;;;;4.63;1.00;;;;;;;;;;5056011;28;20028;-79
2023/08/20 14:26:11;;;;;;;3.28;1.30;;;;;;;;;;5056780;28;20025;-78
2023/08/20 14:28:36;;;;;;;12.15;2.10;;;;;;;;;;5055122;28;20108;-79
2023/08/20 14:31:03;;;;;;;1.98;1.35;;;;;;;;;;5055228;28;20024;-79
2023/08/20 14:33:29;;;;;;;4.80;1.15;;;;;;;;;;5054979;28;20024;-78
2023/08/20 14:35:55;;;;;;;3.10;1.00;;;;;;;;;;5055506;28;20033;-79
2023/08/20 14:38:20;;;;;;;1.40;1.00;;;;;;;;;;5056882;28;20033;-79
2023/08/20 14:40:46;;;;;;;2.75;1.08;;;;;;;;;;5055788;28;20069;-79
2023/08/20 14:43:11;;;;;;;2.22;1.33;;;;;;;;;;5056476;28;20064;-79